Time;durP1;ratioP1;P1;durP2;ratioP2;P2;SDS_P1;SDS_P2;PMS_P1;PMS_P2;Temp;Humidity;BMP_temperature;BMP_pressure;BME280_temperature;BME280_humidity;BME280_pressure;Samples;Min_cycle;Max_cycle;Signal;HPM_P1;HPM_P2
2021/09/21 00:00:45;;;;;;;1.60;1.40;;;;;;;;;;4514156;28;20652;-64
2021/09/21 00:02:56;;;;;;;1.70;1.57;;;;;;;;;;4516316;28;20108;-64
2021/09/21 00:05:07;;;;;;;1.83;1.50;;;;;;;;;;4514730;28;20111;-64
2021/09/21 00:07:17;;;;;;;1.60;1.30;;;;;;;;;;4513468;28;20041;-64
2021/09/21 00:09:28;;;;;;;2.40;1.50;;;;;;;;;;4515734;28;20036;-64
2021/09/21 00:11:38;;;;;;;1.77;1.50;;;;;;;;;;4514074;28;20076;-64
2021/09/21 00:13:49;;;;;;;2.33;1.70;;;;;;;;;;4515846;28;20044;-64
2021/09/21 00:15:59;;;;;;;1.70;1.47;;;;;;;;;;4504109;28;20610;-63
2021/09/21 00:18:09;;;;;;;1.70;1.47;;;;;;;;;;4516138;28;20037;-63
2021/09/21 00:20:20;;;;;;;1.87;1.67;;;;;;;;;;4514760;28;33583;-64
2021/09/21 00:22:31;;;;;;;1.63;1.48;;;;;;;;;;4499140;28;20025;-63
2021/09/21 00:24:41;;;;;;;1.90;1.70;;;;;;;;;;4515939;28;20064;-63
2021/09/21 00:26:52;;;;;;;3.53;1.87;;;;;;;;;;4497617;28;20045;-64
2021/09/21 00:29:02;;;;;;;1.60;1.50;;;;;;;;;;4503960;28;20510;-63
2021/09/21 00:31:14;;;;;;;3.28;1.67;;;;;;;;;;4479114;28;20106;-63
2021/09/21 00:33:24;;;;;;;1.40;1.30;;;;;;;;;;4497742;28;20065;-63
2021/09/21 00:35:35;;;;;;;2.00;1.43;;;;;;;;;;4514818;28;20052;-63
2021/09/21 00:37:45;;;;;;;1.77;1.40;;;;;;;;;;4513590;28;45007;-63
2021/09/21 00:39:56;;;;;;;2.17;1.70;;;;;;;;;;4515353;28;20034;-63
2021/09/21 00:42:07;;;;;;;3.70;1.70;;;;;;;;;;4512601;28;20053;-63
2021/09/21 00:44:20;;;;;;;2.20;1.80;;;;;;;;;;4486395;28;20030;-63
2021/09/21 00:46:31;;;;;;;2.30;1.83;;;;;;;;;;4514964;28;20046;-63
2021/09/21 00:48:41;;;;;;;2.23;1.70;;;;;;;;;;4514658;28;20486;-63
2021/09/21 00:50:52;;;;;;;2.73;1.67;;;;;;;;;;4514548;28;20891;-63
2021/09/21 00:53:03;;;;;;;2.20;1.53;;;;;;;;;;4514903;28;20432;-63
2021/09/21 00:55:14;;;;;;;2.40;1.70;;;;;;;;;;4514422;28;20060;-63
2021/09/21 00:57:25;;;;;;;2.42;1.67;;;;;;;;;;4497498;28;20033;-63
2021/09/21 00:59:35;;;;;;;1.80;1.60;;;;;;;;;;4514253;28;20177;-64
2021/09/21 01:01:46;;;;;;;2.57;1.63;;;;;;;;;;4515258;28;29066;-63
2021/09/21 01:03:57;;;;;;;2.07;1.70;;;;;;;;;;4514930;28;20033;-63
2021/09/21 01:06:07;;;;;;;2.07;1.63;;;;;;;;;;4513840;28;20072;-62
2021/09/21 01:08:17;;;;;;;1.90;1.63;;;;;;;;;;4514771;28;20545;-63
2021/09/21 01:10:29;;;;;;;2.23;1.80;;;;;;;;;;4515439;28;20052;-63
2021/09/21 01:12:40;;;;;;;2.00;1.60;;;;;;;;;;4516740;28;20043;-63
2021/09/21 01:14:50;;;;;;;2.40;1.60;;;;;;;;;;4515566;28;20037;-63
2021/09/21 01:17:01;;;;;;;1.77;1.40;;;;;;;;;;4513048;28;26663;-63
2021/09/21 01:19:12;;;;;;;1.87;1.60;;;;;;;;;;4514181;28;20030;-63
2021/09/21 01:21:23;;;;;;;2.15;1.50;;;;;;;;;;4497698;28;20136;-63
2021/09/21 01:23:44;;;;;;;2.03;1.70;;;;;;;;;;4499354;28;20034;-63
2021/09/21 01:25:55;;;;;;;2.43;1.60;;;;;;;;;;4517249;28;20270;-63
2021/09/21 01:28:06;;;;;;;2.08;1.77;;;;;;;;;;4498429;28;20897;-63
2021/09/21 01:30:16;;;;;;;2.10;1.60;;;;;;;;;;4500546;28;20046;-62
2021/09/21 01:32:27;;;;;;;1.97;1.63;;;;;;;;;;4499267;28;20483;-63
2021/09/21 01:34:40;;;;;;;1.75;1.63;;;;;;;;;;4516114;28;20235;-64
2021/09/21 01:36:51;;;;;;;1.83;1.60;;;;;;;;;;4499233;28;20096;-63
2021/09/21 01:39:01;;;;;;;1.57;1.47;;;;;;;;;;4517534;28;20041;-63
2021/09/21 01:41:12;;;;;;;1.90;1.70;;;;;;;;;;4515785;28;20048;-63
2021/09/21 01:43:23;;;;;;;1.90;1.70;;;;;;;;;;4500617;28;20277;-63
2021/09/21 01:45:33;;;;;;;2.33;1.70;;;;;;;;;;4516726;28;20022;-63
2021/09/21 01:47:45;;;;;;;1.83;1.60;;;;;;;;;;4498101;28;20906;-63
2021/09/21 01:50:19;;;;;;;1.73;1.45;;;;;;;;;;4500154;28;20887;-63
2021/09/21 01:52:53;;;;;;;2.53;1.63;;;;;;;;;;4505774;28;20695;-63
2021/09/21 02:00:06;;;;;;;1.83;1.52;;;;;;;;;;4508367;28;20046;-63
2021/09/21 02:02:22;;;;;;;1.98;1.70;;;;;;;;;;4513858;28;20048;-63
2021/09/21 02:04:33;;;;;;;2.67;1.83;;;;;;;;;;4505525;28;25035;-63
2021/09/21 02:06:43;;;;;;;2.20;1.80;;;;;;;;;;4517710;28;20053;-64
2021/09/21 02:08:54;;;;;;;2.43;2.00;;;;;;;;;;4521466;28;20040;-63
2021/09/21 02:11:04;;;;;;;2.17;1.73;;;;;;;;;;4498379;28;47403;-63
2021/09/21 02:13:15;;;;;;;2.77;1.80;;;;;;;;;;4507953;28;20025;-63
2021/09/21 02:15:25;;;;;;;1.87;1.63;;;;;;;;;;4505466;28;20030;-63
2021/09/21 02:17:36;;;;;;;1.90;1.70;;;;;;;;;;4515898;28;20033;-63
2021/09/21 02:19:46;;;;;;;3.10;1.70;;;;;;;;;;4516384;28;20245;-63
2021/09/21 02:21:56;;;;;;;1.90;1.70;;;;;;;;;;4505008;28;27738;-64
2021/09/21 02:24:07;;;;;;;2.67;1.87;;;;;;;;;;4514955;28;33164;-63
2021/09/21 02:26:17;;;;;;;2.83;1.80;;;;;;;;;;4516748;28;22546;-63
2021/09/21 02:28:28;;;;;;;2.77;1.90;;;;;;;;;;4516849;28;20030;-63
2021/09/21 02:30:39;;;;;;;2.42;1.70;;;;;;;;;;4516371;28;20503;-63
2021/09/21 02:32:49;;;;;;;2.87;1.93;;;;;;;;;;4497831;28;20048;-63
2021/09/21 02:35:00;;;;;;;2.43;1.80;;;;;;;;;;4516810;28;20120;-63
2021/09/21 02:37:14;;;;;;;2.47;1.93;;;;;;;;;;4517570;28;20052;-63
2021/09/21 02:39:24;;;;;;;1.90;1.60;;;;;;;;;;4515493;28;20029;-63
2021/09/21 02:41:35;;;;;;;2.57;1.60;;;;;;;;;;4499273;28;28697;-63
2021/09/21 02:43:45;;;;;;;2.60;1.80;;;;;;;;;;4515128;28;20038;-62
2021/09/21 02:46:00;;;;;;;1.80;1.60;;;;;;;;;;4516730;28;20417;-63
2021/09/21 02:48:11;;;;;;;2.22;1.77;;;;;;;;;;4516026;28;20088;-63
2021/09/21 02:50:21;;;;;;;3.00;1.87;;;;;;;;;;4497647;28;26213;-63
2021/09/21 02:52:32;;;;;;;1.90;1.70;;;;;;;;;;4515850;28;20486;-63
2021/09/21 02:54:42;;;;;;;2.40;1.90;;;;;;;;;;4517022;28;20038;-63
2021/09/21 02:56:53;;;;;;;1.80;1.60;;;;;;;;;;4513138;28;39058;-63
2021/09/21 02:59:03;;;;;;;2.10;1.70;;;;;;;;;;4505737;28;20466;-63
2021/09/21 03:01:14;;;;;;;2.10;1.80;;;;;;;;;;4516241;28;20034;-63
2021/09/21 03:03:29;;;;;;;2.40;1.73;;;;;;;;;;4515265;28;20026;-63
2021/09/21 03:05:43;;;;;;;2.60;1.70;;;;;;;;;;4515400;28;20053;-63
2021/09/21 03:10:16;;;;;;;2.10;1.60;;;;;;;;;;4515466;28;20125;-63
2021/09/21 03:12:42;;;;;;;2.10;1.77;;;;;;;;;;4517678;28;20125;-63
2021/09/21 03:17:28;;;;;;;3.47;1.77;;;;;;;;;;4517557;28;20038;-63
2021/09/21 03:19:38;;;;;;;2.88;2.10;;;;;;;;;;4517453;28;20607;-63
2021/09/21 03:21:48;;;;;;;2.07;1.70;;;;;;;;;;4514666;28;32193;-63
2021/09/21 03:23:59;;;;;;;2.70;2.00;;;;;;;;;;4515274;28;35084;-63
2021/09/21 03:26:09;;;;;;;2.70;2.00;;;;;;;;;;4516579;28;20041;-63
2021/09/21 03:28:20;;;;;;;2.13;1.83;;;;;;;;;;4516393;28;20125;-63
2021/09/21 03:30:30;;;;;;;3.17;2.07;;;;;;;;;;4498266;28;20043;-63
2021/09/21 03:32:41;;;;;;;2.37;1.80;;;;;;;;;;4499476;28;20046;-63
2021/09/21 03:34:52;;;;;;;2.20;1.70;;;;;;;;;;4514876;28;20821;-63
2021/09/21 03:37:08;;;;;;;2.00;1.80;;;;;;;;;;4514128;28;27629;-63
2021/09/21 03:39:18;;;;;;;2.63;1.90;;;;;;;;;;4515944;28;20037;-63
2021/09/21 03:41:28;;;;;;;2.20;1.87;;;;;;;;;;4514648;28;20509;-63
2021/09/21 03:43:39;;;;;;;3.10;1.80;;;;;;;;;;4514511;28;20049;-63
2021/09/21 03:45:49;;;;;;;2.60;1.73;;;;;;;;;;4514059;28;31653;-63
2021/09/21 03:48:00;;;;;;;2.73;1.80;;;;;;;;;;4515186;28;34732;-63
2021/09/21 03:50:10;;;;;;;3.50;2.00;;;;;;;;;;4517241;28;20033;-64
2021/09/21 03:52:21;;;;;;;2.70;2.00;;;;;;;;;;4514249;28;20034;-63
2021/09/21 03:54:31;;;;;;;2.17;1.73;;;;;;;;;;4514368;28;20898;-62
2021/09/21 03:56:42;;;;;;;1.63;1.53;;;;;;;;;;4513964;28;20032;-63
2021/09/21 03:58:52;;;;;;;2.50;1.77;;;;;;;;;;4516288;28;20045;-63
2021/09/21 04:01:03;;;;;;;2.30;1.80;;;;;;;;;;4513334;28;20040;-65
2021/09/21 04:03:13;;;;;;;2.20;1.70;;;;;;;;;;4516228;28;20037;-63
2021/09/21 04:05:23;;;;;;;2.37;1.87;;;;;;;;;;4514955;28;26985;-63
2021/09/21 04:07:34;;;;;;;2.03;1.80;;;;;;;;;;4515787;28;20950;-63
2021/09/21 04:09:44;;;;;;;2.43;1.73;;;;;;;;;;4503874;28;20554;-63
2021/09/21 04:11:54;;;;;;;2.10;1.80;;;;;;;;;;4497664;28;20038;-63
2021/09/21 04:14:05;;;;;;;1.63;1.50;;;;;;;;;;4514903;28;20048;-62
2021/09/21 04:16:16;;;;;;;2.53;1.83;;;;;;;;;;4513895;28;20041;-62
2021/09/21 04:18:27;;;;;;;2.25;1.70;;;;;;;;;;4515113;28;20129;-62
2021/09/21 04:20:37;;;;;;;3.03;1.90;;;;;;;;;;4515248;28;20482;-63
2021/09/21 04:22:47;;;;;;;2.60;1.80;;;;;;;;;;4496151;28;20065;-63
2021/09/21 04:24:58;;;;;;;1.90;1.70;;;;;;;;;;4514006;28;20505;-62
2021/09/21 04:27:08;;;;;;;2.70;1.80;;;;;;;;;;4515009;28;20037;-62
2021/09/21 04:29:19;;;;;;;1.97;1.77;;;;;;;;;;4515665;28;20149;-63
2021/09/21 04:31:31;;;;;;;2.03;1.73;;;;;;;;;;4515567;28;20037;-62
2021/09/21 04:33:42;;;;;;;2.30;1.80;;;;;;;;;;4515451;28;20037;-62
2021/09/21 04:35:52;;;;;;;2.83;2.10;;;;;;;;;;4512889;28;30014;-63
2021/09/21 04:38:03;;;;;;;2.00;1.57;;;;;;;;;;4512943;28;20054;-62
2021/09/21 04:40:14;;;;;;;1.93;1.63;;;;;;;;;;4513955;28;21187;-63
2021/09/21 04:42:25;;;;;;;2.38;1.67;;;;;;;;;;4513941;28;21150;-63
2021/09/21 04:44:37;;;;;;;2.53;1.83;;;;;;;;;;4515804;28;20033;-62
2021/09/21 04:46:47;;;;;;;4.88;2.20;;;;;;;;;;4497668;28;20046;-63
2021/09/21 04:48:57;;;;;;;3.07;2.40;;;;;;;;;;4513823;28;20429;-63
2021/09/21 04:51:08;;;;;;;2.83;2.17;;;;;;;;;;4514868;28;20406;-62
2021/09/21 04:53:18;;;;;;;2.60;2.07;;;;;;;;;;4514403;28;20401;-63
2021/09/21 04:55:29;;;;;;;2.67;2.00;;;;;;;;;;4512632;28;30385;-62
2021/09/21 04:57:39;;;;;;;3.20;2.40;;;;;;;;;;4514283;28;20087;-62
2021/09/21 04:59:50;;;;;;;2.87;2.30;;;;;;;;;;4503302;28;20030;-63
2021/09/21 05:02:00;;;;;;;2.63;1.80;;;;;;;;;;4496935;28;20027;-63
2021/09/21 05:04:10;;;;;;;2.20;1.90;;;;;;;;;;4502098;28;39567;-63
2021/09/21 05:06:21;;;;;;;2.60;1.73;;;;;;;;;;4512587;28;27706;-64
2021/09/21 05:08:31;;;;;;;2.33;1.80;;;;;;;;;;4516247;28;20525;-64
2021/09/21 05:10:42;;;;;;;2.13;1.73;;;;;;;;;;4515277;28;20049;-63
2021/09/21 05:12:52;;;;;;;3.00;1.97;;;;;;;;;;4514539;28;20103;-63
2021/09/21 05:15:03;;;;;;;2.50;2.03;;;;;;;;;;4513659;28;20061;-63
2021/09/21 05:17:14;;;;;;;3.00;1.98;;;;;;;;;;4512832;28;20041;-63
2021/09/21 05:19:24;;;;;;;2.23;1.90;;;;;;;;;;4496252;28;20038;-63
2021/09/21 05:21:36;;;;;;;2.87;2.13;;;;;;;;;;4514329;28;20061;-63
2021/09/21 05:23:47;;;;;;;3.20;2.22;;;;;;;;;;4515506;28;20104;-63
2021/09/21 05:25:57;;;;;;;3.30;2.30;;;;;;;;;;4514115;28;20100;-64
2021/09/21 05:28:08;;;;;;;3.27;2.40;;;;;;;;;;4496252;28;20101;-63
2021/09/21 05:30:19;;;;;;;3.67;2.80;;;;;;;;;;4514469;28;20057;-63
2021/09/21 05:32:30;;;;;;;;;;;;;;;;;;4497296;28;20041;-63
2021/09/21 05:34:40;;;;;;;3.05;2.10;;;;;;;;;;4497632;28;19921;-64
2021/09/21 05:36:50;;;;;;;2.27;2.00;;;;;;;;;;4513095;28;20030;-63
2021/09/21 05:39:01;;;;;;;3.90;2.30;;;;;;;;;;4497327;28;20506;-63
2021/09/21 05:41:12;;;;;;;2.77;2.10;;;;;;;;;;4495736;28;20030;-63
2021/09/21 05:43:22;;;;;;;2.83;2.43;;;;;;;;;;4512591;28;20478;-64
2021/09/21 05:45:33;;;;;;;3.10;2.13;;;;;;;;;;4513135;28;30816;-63
2021/09/21 05:47:43;;;;;;;2.70;2.07;;;;;;;;;;4511961;28;20052;-63
2021/09/21 05:49:54;;;;;;;2.60;2.17;;;;;;;;;;4519206;28;20025;-63
2021/09/21 05:52:05;;;;;;;2.20;1.83;;;;;;;;;;4512319;28;25195;-63
2021/09/21 05:54:16;;;;;;;;;;;;;;;;;;4514102;28;20041;-63
2021/09/21 05:56:26;;;;;;;2.85;2.10;;;;;;;;;;4513382;28;19975;-63
2021/09/21 05:58:36;;;;;;;3.23;2.07;;;;;;;;;;4512515;28;32068;-62
2021/09/21 06:00:47;;;;;;;3.67;2.27;;;;;;;;;;4512469;28;20034;-63
2021/09/21 06:02:58;;;;;;;2.50;2.10;;;;;;;;;;4514838;28;20123;-63
2021/09/21 06:05:08;;;;;;;3.50;2.25;;;;;;;;;;4512435;28;20045;-63
2021/09/21 06:07:19;;;;;;;2.90;2.20;;;;;;;;;;4502667;28;20041;-64
2021/09/21 06:09:29;;;;;;;2.50;2.07;;;;;;;;;;4515934;28;20397;-64
2021/09/21 06:11:40;;;;;;;2.40;2.20;;;;;;;;;;4516865;28;20132;-63
2021/09/21 06:13:50;;;;;;;2.40;2.10;;;;;;;;;;4514151;28;20034;-63
2021/09/21 06:16:01;;;;;;;2.87;1.87;;;;;;;;;;4504850;28;20044;-64
2021/09/21 06:18:11;;;;;;;2.60;2.17;;;;;;;;;;4514737;28;20041;-63
2021/09/21 06:20:22;;;;;;;3.23;2.23;;;;;;;;;;4515573;28;20061;-63
2021/09/21 06:22:32;;;;;;;2.40;1.87;;;;;;;;;;4515784;28;20100;-63
2021/09/21 06:24:43;;;;;;;2.37;1.97;;;;;;;;;;4516502;28;20041;-64
2021/09/21 06:26:53;;;;;;;2.57;2.07;;;;;;;;;;4516258;28;20033;-63
2021/09/21 06:29:04;;;;;;;4.53;2.23;;;;;;;;;;4516402;28;20047;-64
2021/09/21 06:31:17;;;;;;;3.38;2.40;;;;;;;;;;4498831;28;21174;-64
2021/09/21 06:33:28;;;;;;;3.28;2.20;;;;;;;;;;4516339;28;20042;-64
2021/09/21 06:35:38;;;;;;;2.77;2.10;;;;;;;;;;4497863;28;20483;-64
2021/09/21 06:37:50;;;;;;;2.80;2.28;;;;;;;;;;4517743;28;20034;-63
2021/09/21 06:40:01;;;;;;;3.42;2.58;;;;;;;;;;4515209;28;20951;-63
2021/09/21 06:42:11;;;;;;;2.30;1.87;;;;;;;;;;4516750;28;20171;-64
2021/09/21 06:44:22;;;;;;;4.40;2.17;;;;;;;;;;4517544;28;20787;-64
2021/09/21 06:46:32;;;;;;;2.60;2.20;;;;;;;;;;4515787;28;20042;-64
2021/09/21 06:48:42;;;;;;;2.67;2.07;;;;;;;;;;4515969;28;20116;-63
2021/09/21 06:50:53;;;;;;;3.10;2.40;;;;;;;;;;4515011;28;27373;-63
2021/09/21 06:53:04;;;;;;;3.17;2.53;;;;;;;;;;4497795;28;20048;-63
2021/09/21 06:55:15;;;;;;;3.22;2.20;;;;;;;;;;4505396;28;20071;-63
2021/09/21 06:57:26;;;;;;;;;;;;;;;;;;4516344;28;20040;-63
2021/09/21 06:59:36;;;;;;;3.05;2.50;;;;;;;;;;4516674;28;19924;-63
2021/09/21 07:01:47;;;;;;;2.77;2.50;;;;;;;;;;4515923;28;20034;-63
2021/09/21 07:03:58;;;;;;;3.40;2.50;;;;;;;;;;4515094;28;20675;-64
2021/09/21 07:06:08;;;;;;;2.77;2.40;;;;;;;;;;4516549;28;20287;-63
2021/09/21 07:08:19;;;;;;;2.97;2.50;;;;;;;;;;4498475;28;20050;-63
2021/09/21 07:10:29;;;;;;;2.60;2.30;;;;;;;;;;4515407;28;20045;-63
2021/09/21 07:12:40;;;;;;;3.50;2.40;;;;;;;;;;4515143;28;28311;-63
2021/09/21 07:14:50;;;;;;;3.28;2.53;;;;;;;;;;4515903;28;20041;-63
2021/09/21 07:17:01;;;;;;;3.00;2.57;;;;;;;;;;4516709;28;20034;-63
2021/09/21 07:19:11;;;;;;;3.83;2.77;;;;;;;;;;4478506;28;20038;-63
2021/09/21 07:21:22;;;;;;;4.13;2.80;;;;;;;;;;4496783;28;23201;-63
2021/09/21 07:23:33;;;;;;;2.97;2.60;;;;;;;;;;4515136;28;20041;-64
2021/09/21 07:25:44;;;;;;;4.03;2.63;;;;;;;;;;4515369;28;20032;-63
2021/09/21 07:27:54;;;;;;;3.73;2.83;;;;;;;;;;4516895;28;20046;-62
2021/09/21 07:30:05;;;;;;;4.23;2.87;;;;;;;;;;4516797;28;20068;-61
2021/09/21 07:32:16;;;;;;;6.30;2.80;;;;;;;;;;4506413;28;20033;-62
2021/09/21 07:34:26;;;;;;;4.23;2.83;;;;;;;;;;4500127;28;20038;-63
2021/09/21 07:36:37;;;;;;;3.40;2.87;;;;;;;;;;4514630;28;20042;-62
2021/09/21 07:38:47;;;;;;;3.80;3.10;;;;;;;;;;4516776;28;20414;-62
2021/09/21 07:40:57;;;;;;;4.30;3.27;;;;;;;;;;4503437;28;20037;-62
2021/09/21 07:43:08;;;;;;;3.23;2.60;;;;;;;;;;4514588;28;26418;-62
2021/09/21 07:45:19;;;;;;;3.63;2.70;;;;;;;;;;4514465;28;20124;-60
2021/09/21 07:47:29;;;;;;;4.32;2.70;;;;;;;;;;4515553;28;20091;-61
2021/09/21 07:49:41;;;;;;;4.47;2.97;;;;;;;;;;4516087;28;20045;-61
2021/09/21 07:51:51;;;;;;;4.07;2.95;;;;;;;;;;4514172;28;20053;-61
2021/09/21 07:54:02;;;;;;;3.80;2.80;;;;;;;;;;4515138;28;20049;-61
2021/09/21 07:56:13;;;;;;;3.38;2.67;;;;;;;;;;4515706;28;20021;-61
2021/09/21 07:58:23;;;;;;;3.80;2.97;;;;;;;;;;4504619;28;20045;-61
2021/09/21 08:00:33;;;;;;;3.73;2.50;;;;;;;;;;4516827;28;26724;-61
2021/09/21 08:02:46;;;;;;;3.63;2.55;;;;;;;;;;4514602;28;20132;-61
2021/09/21 08:04:56;;;;;;;5.37;3.00;;;;;;;;;;4496972;28;20035;-61
2021/09/21 08:07:07;;;;;;;3.93;2.83;;;;;;;;;;4515241;28;20041;-60
2021/09/21 08:09:18;;;;;;;3.53;2.90;;;;;;;;;;4514578;28;20030;-60
2021/09/21 08:11:28;;;;;;;4.15;3.10;;;;;;;;;;4514924;28;20113;-61
2021/09/21 08:13:39;;;;;;;3.73;3.07;;;;;;;;;;4514248;28;20037;-61
2021/09/21 08:15:49;;;;;;;3.97;2.93;;;;;;;;;;4515830;28;20044;-61
2021/09/21 08:18:01;;;;;;;4.68;2.90;;;;;;;;;;4515013;28;20030;-61
2021/09/21 08:20:12;;;;;;;4.33;3.30;;;;;;;;;;4496630;28;20042;-61
2021/09/21 08:22:23;;;;;;;4.13;2.83;;;;;;;;;;4514880;28;20033;-61
2021/09/21 08:24:34;;;;;;;4.80;3.05;;;;;;;;;;4514458;28;20041;-61
2021/09/21 08:26:44;;;;;;;4.03;2.97;;;;;;;;;;4504072;28;20050;-60
2021/09/21 08:28:55;;;;;;;4.33;3.07;;;;;;;;;;4514410;28;23349;-61
2021/09/21 08:31:05;;;;;;;4.30;2.70;;;;;;;;;;4514321;28;20088;-60
2021/09/21 08:33:16;;;;;;;4.07;2.97;;;;;;;;;;4513968;28;20037;-61
2021/09/21 08:35:27;;;;;;;4.30;3.00;;;;;;;;;;4515552;28;20042;-61
2021/09/21 08:37:37;;;;;;;3.80;2.80;;;;;;;;;;4504228;28;20045;-61
2021/09/21 08:39:48;;;;;;;3.10;2.60;;;;;;;;;;4515632;28;24488;-61
2021/09/21 08:41:58;;;;;;;4.23;2.93;;;;;;;;;;4503983;28;20132;-61
2021/09/21 08:44:10;;;;;;;3.80;2.93;;;;;;;;;;4513043;28;20046;-61
2021/09/21 08:46:20;;;;;;;;;;;;;;;;;;4514982;28;20196;-61
2021/09/21 08:48:30;;;;;;;4.40;2.83;;;;;;;;;;4497666;28;20013;-61
2021/09/21 08:50:41;;;;;;;5.03;2.90;;;;;;;;;;4515589;28;20041;-60
2021/09/21 08:52:51;;;;;;;3.83;2.87;;;;;;;;;;4497560;28;20042;-61
2021/09/21 08:55:02;;;;;;;5.30;3.33;;;;;;;;;;4515544;28;20111;-61
2021/09/21 08:57:13;;;;;;;3.42;2.42;;;;;;;;;;4514538;28;20049;-61
2021/09/21 08:59:30;;;;;;;5.03;3.13;;;;;;;;;;4515777;28;20041;-61
2021/09/21 09:01:47;;;;;;;3.45;2.92;;;;;;;;;;4515403;28;20033;-61
2021/09/21 09:03:57;;;;;;;4.30;3.00;;;;;;;;;;4503178;28;20074;-61
2021/09/21 09:06:08;;;;;;;4.23;2.87;;;;;;;;;;4514838;28;20046;-61
2021/09/21 09:08:29;;;;;;;;;;;;;;;;;;4503881;28;20037;-61
2021/09/21 09:10:40;;;;;;;4.07;2.80;;;;;;;;;;4495913;28;19917;-61
2021/09/21 09:12:51;;;;;;;3.63;2.78;;;;;;;;;;4515766;28;20034;-62
2021/09/21 09:15:11;;;;;;;3.72;2.67;;;;;;;;;;4495930;28;20617;-60
2021/09/21 09:17:21;;;;;;;4.18;3.03;;;;;;;;;;4513783;28;20037;-61
2021/09/21 09:19:35;;;;;;;3.70;2.73;;;;;;;;;;4503490;28;21773;-60
2021/09/21 09:21:46;;;;;;;3.38;2.58;;;;;;;;;;4513336;28;20176;-61
2021/09/21 09:23:57;;;;;;;3.80;2.63;;;;;;;;;;4514298;28;20076;-62
2021/09/21 09:26:08;;;;;;;4.60;3.00;;;;;;;;;;4511988;28;20563;-60
2021/09/21 09:28:21;;;;;;;5.70;2.63;;;;;;;;;;4513656;28;20088;-60
2021/09/21 09:30:32;;;;;;;3.72;2.58;;;;;;;;;;4502750;28;20030;-60
2021/09/21 09:32:43;;;;;;;3.63;2.60;;;;;;;;;;4514017;28;20042;-61
2021/09/21 09:34:58;;;;;;;3.75;2.80;;;;;;;;;;4515218;28;20043;-60
2021/09/21 09:37:08;;;;;;;5.30;2.97;;;;;;;;;;4513719;28;20044;-60
2021/09/21 09:39:22;;;;;;;3.17;2.57;;;;;;;;;;4513596;28;20048;-60
2021/09/21 09:41:40;;;;;;;4.05;2.92;;;;;;;;;;4513103;28;20727;-60
2021/09/21 09:43:51;;;;;;;3.33;2.40;;;;;;;;;;4519111;28;20037;-60
2021/09/21 09:46:01;;;;;;;3.67;2.70;;;;;;;;;;4516567;28;20034;-61
2021/09/21 09:48:14;;;;;;;3.00;2.13;;;;;;;;;;4518918;28;20029;-60
2021/09/21 09:50:27;;;;;;;3.75;2.47;;;;;;;;;;4519318;28;20034;-61
2021/09/21 09:52:38;;;;;;;4.00;2.90;;;;;;;;;;4516346;28;20034;-60
2021/09/21 09:54:49;;;;;;;4.37;3.00;;;;;;;;;;4518085;28;20398;-60
2021/09/21 09:57:00;;;;;;;4.32;3.35;;;;;;;;;;4506558;28;20042;-60
2021/09/21 09:59:13;;;;;;;6.90;3.35;;;;;;;;;;4505649;28;20160;-60
2021/09/21 10:01:24;;;;;;;5.15;3.47;;;;;;;;;;4522568;28;20123;-60
2021/09/21 10:03:34;;;;;;;5.13;3.27;;;;;;;;;;4505702;28;30142;-60
2021/09/21 10:05:45;;;;;;;4.10;2.87;;;;;;;;;;4498293;28;20133;-60
2021/09/21 10:07:56;;;;;;;4.80;3.00;;;;;;;;;;4517102;28;29514;-60
2021/09/21 10:10:07;;;;;;;5.15;3.40;;;;;;;;;;4504630;28;20030;-60
2021/09/21 10:12:18;;;;;;;4.50;3.10;;;;;;;;;;4499352;28;20503;-61
2021/09/21 10:14:28;;;;;;;3.77;2.60;;;;;;;;;;4515891;28;22223;-60
2021/09/21 10:17:01;;;;;;;4.90;3.07;;;;;;;;;;4516594;28;20088;-60
2021/09/21 10:19:18;;;;;;;4.07;2.97;;;;;;;;;;4515751;28;20136;-60
2021/09/21 10:21:36;;;;;;;3.88;2.92;;;;;;;;;;4516881;28;20037;-60
2021/09/21 10:23:47;;;;;;;3.95;3.00;;;;;;;;;;4498583;28;20775;-60
2021/09/21 10:26:10;;;;;;;3.57;2.93;;;;;;;;;;4514966;28;20056;-60
2021/09/21 10:28:21;;;;;;;4.00;2.97;;;;;;;;;;4516065;28;20892;-61
2021/09/21 10:30:31;;;;;;;3.13;2.17;;;;;;;;;;4505535;28;20041;-60
2021/09/21 10:32:43;;;;;;;3.20;2.10;;;;;;;;;;4517049;28;20149;-61
2021/09/21 10:34:54;;;;;;;2.50;2.08;;;;;;;;;;4505307;28;20152;-60
2021/09/21 10:37:05;;;;;;;2.60;1.90;;;;;;;;;;4514881;28;20092;-61
2021/09/21 10:39:17;;;;;;;3.22;2.13;;;;;;;;;;4497920;28;20045;-61
2021/09/21 10:41:27;;;;;;;2.92;1.90;;;;;;;;;;4517652;28;20033;-60
2021/09/21 10:43:38;;;;;;;2.97;2.07;;;;;;;;;;4515419;28;20033;-60
2021/09/21 10:45:50;;;;;;;3.10;2.20;;;;;;;;;;4517182;28;20398;-61
2021/09/21 10:48:04;;;;;;;2.92;2.00;;;;;;;;;;4517276;28;20041;-61
2021/09/21 10:50:18;;;;;;;3.38;2.28;;;;;;;;;;4521880;28;20619;-61
2021/09/21 10:52:28;;;;;;;2.63;1.92;;;;;;;;;;4499963;28;20035;-61
2021/09/21 10:54:53;;;;;;;2.73;2.30;;;;;;;;;;4517508;28;20042;-61
2021/09/21 10:57:10;;;;;;;2.97;2.10;;;;;;;;;;4497855;28;20090;-61
2021/09/21 10:59:26;;;;;;;2.55;1.90;;;;;;;;;;4515552;28;20130;-61
2021/09/21 11:01:45;;;;;;;2.15;1.75;;;;;;;;;;4516580;28;20037;-61
2021/09/21 11:03:55;;;;;;;2.10;1.80;;;;;;;;;;4514865;28;20649;-61
2021/09/21 11:06:06;;;;;;;1.83;1.47;;;;;;;;;;4504798;28;21731;-61
2021/09/21 11:08:18;;;;;;;2.40;1.70;;;;;;;;;;4515843;28;28314;-61
2021/09/21 11:10:34;;;;;;;1.42;1.25;;;;;;;;;;4515112;28;20034;-61
2021/09/21 11:12:48;;;;;;;1.75;1.33;;;;;;;;;;4516404;28;20490;-61
2021/09/21 11:15:06;;;;;;;1.77;1.30;;;;;;;;;;4517536;28;20033;-61
2021/09/21 11:17:23;;;;;;;2.35;1.65;;;;;;;;;;4515692;28;20037;-61
2021/09/21 11:19:35;;;;;;;2.10;1.60;;;;;;;;;;4515254;28;20464;-61
2021/09/21 11:21:57;;;;;;;2.22;1.77;;;;;;;;;;4514404;28;20077;-61
2021/09/21 11:24:07;;;;;;;1.98;1.60;;;;;;;;;;4498392;28;20045;-61
2021/09/21 11:26:18;;;;;;;1.73;1.53;;;;;;;;;;4482176;28;20506;-62
2021/09/21 11:28:29;;;;;;;2.20;1.90;;;;;;;;;;4514857;28;20045;-61
2021/09/21 11:30:41;;;;;;;2.47;1.90;;;;;;;;;;4516417;28;20033;-61
2021/09/21 11:32:52;;;;;;;;;;;;;;;;;;4516545;28;20037;-61
2021/09/21 11:35:07;;;;;;;2.15;1.60;;;;;;;;;;4480818;28;19921;-61
2021/09/21 11:37:21;;;;;;;2.90;1.90;;;;;;;;;;4516401;28;20030;-61
2021/09/21 11:39:31;;;;;;;2.42;1.52;;;;;;;;;;4497295;28;20049;-61
2021/09/21 11:41:42;;;;;;;2.22;1.50;;;;;;;;;;4504890;28;20045;-61
2021/09/21 11:43:53;;;;;;;1.50;1.40;;;;;;;;;;4480260;28;20105;-61
2021/09/21 11:46:04;;;;;;;2.87;1.67;;;;;;;;;;4504375;28;20053;-62
2021/09/21 11:48:15;;;;;;;2.05;1.55;;;;;;;;;;4515946;28;20045;-61
2021/09/21 11:50:29;;;;;;;1.92;1.70;;;;;;;;;;4514419;28;20037;-62
2021/09/21 11:52:41;;;;;;;2.58;1.90;;;;;;;;;;4515947;28;20095;-61
2021/09/21 11:54:52;;;;;;;2.15;1.70;;;;;;;;;;4514030;28;20116;-62
2021/09/21 11:57:02;;;;;;;1.93;1.60;;;;;;;;;;4501123;28;31785;-62
2021/09/21 11:59:17;;;;;;;2.17;1.97;;;;;;;;;;4516280;28;20038;-61
2021/09/21 12:01:28;;;;;;;2.88;1.70;;;;;;;;;;4520457;28;20116;-61
2021/09/21 12:03:38;;;;;;;2.20;1.50;;;;;;;;;;4514606;28;20038;-61
2021/09/21 12:05:51;;;;;;;1.43;1.30;;;;;;;;;;4504222;28;20038;-61
2021/09/21 12:08:05;;;;;;;1.75;1.48;;;;;;;;;;4504002;28;20044;-62
2021/09/21 12:10:16;;;;;;;1.90;1.50;;;;;;;;;;4515004;28;20049;-61
2021/09/21 12:12:26;;;;;;;2.03;1.52;;;;;;;;;;4515826;28;20499;-61
2021/09/21 12:14:36;;;;;;;1.93;1.40;;;;;;;;;;4514443;28;20060;-61
2021/09/21 12:16:51;;;;;;;2.53;1.50;;;;;;;;;;4516131;28;20041;-61
2021/09/21 12:19:01;;;;;;;1.40;1.30;;;;;;;;;;4517321;28;20037;-61
2021/09/21 12:21:16;;;;;;;1.73;1.40;;;;;;;;;;4515054;28;20509;-61
2021/09/21 12:23:34;;;;;;;1.55;1.30;;;;;;;;;;4496849;28;20089;-61
2021/09/21 12:25:45;;;;;;;2.13;1.30;;;;;;;;;;4514936;28;20061;-61
2021/09/21 12:27:55;;;;;;;1.93;1.50;;;;;;;;;;4515870;28;20141;-61
2021/09/21 12:30:08;;;;;;;2.03;1.43;;;;;;;;;;4498509;28;20022;-61
2021/09/21 12:32:24;;;;;;;2.42;1.40;;;;;;;;;;4513992;28;20030;-61
2021/09/21 12:34:37;;;;;;;2.05;1.35;;;;;;;;;;4512593;28;20042;-61
2021/09/21 12:36:52;;;;;;;1.50;1.30;;;;;;;;;;4514238;28;20065;-61
2021/09/21 12:39:06;;;;;;;1.30;1.15;;;;;;;;;;4515588;28;20651;-60
2021/09/21 12:41:16;;;;;;;2.17;1.20;;;;;;;;;;4482245;28;20030;-62
2021/09/21 12:43:29;;;;;;;1.50;1.10;;;;;;;;;;4497604;28;20479;-60
2021/09/21 12:45:42;;;;;;;2.20;1.20;;;;;;;;;;4515276;28;20031;-60
2021/09/21 12:47:52;;;;;;;1.83;1.20;;;;;;;;;;4503879;28;20041;-61
2021/09/21 12:50:14;;;;;;;2.07;1.17;;;;;;;;;;4515161;28;32077;-60
2021/09/21 12:52:29;;;;;;;;;;;;;;;;;;4504711;28;20562;-60
2021/09/21 12:54:47;;;;;;;3.28;1.40;;;;;;;;;;4481088;28;19921;-60
2021/09/21 12:56:59;;;;;;;1.00;0.90;;;;;;;;;;4513298;28;20038;-60
2021/09/21 12:59:15;;;;;;;1.45;0.90;;;;;;;;;;4516868;28;20045;-60
2021/09/21 13:01:25;;;;;;;1.60;1.02;;;;;;;;;;4513392;28;20084;-60
2021/09/21 13:03:36;;;;;;;1.70;1.00;;;;;;;;;;4515552;28;20033;-60
2021/09/21 13:05:47;;;;;;;1.95;1.30;;;;;;;;;;4496491;28;20781;-61
2021/09/21 13:07:58;;;;;;;1.20;1.10;;;;;;;;;;4514646;28;20038;-60
2021/09/21 13:10:08;;;;;;;1.27;1.00;;;;;;;;;;4513862;28;20037;-60
2021/09/21 13:12:23;;;;;;;3.10;1.17;;;;;;;;;;4515494;28;20756;-60
2021/09/21 13:14:34;;;;;;;1.45;1.13;;;;;;;;;;4515267;28;20079;-61
2021/09/21 13:16:46;;;;;;;1.20;1.07;;;;;;;;;;4515883;28;20467;-60
2021/09/21 13:18:57;;;;;;;1.77;0.90;;;;;;;;;;4518973;28;20200;-60
2021/09/21 13:21:07;;;;;;;1.55;1.13;;;;;;;;;;4517574;28;20188;-60